M/y Ohana — ZJL9370 — position and weather

sailwx.info

Track history (hours):
 
Tides and Currents Weather Stations Pressure Air Temp Water Temp Dewpoint Dewpoint Depression Visibility Wind Speed Wind Dir Waves Ship Positions

M/y Ohana

Last reported at 2017-Nov-22 23:47 UTC. Time now 2017-Nov-24 16:22 UTC.
Position N 26°06' W 080°10'.

Length 18 m.

Type: Pleasure craft. MMSI: 338166822.

Date/timePositionNaut miles runAvg speedWind from/ knotsBaromVisibWave heightAir tempDewpointWater temp
2017-Nov-22 23:47N 26°06' W 080°10'1 3.1
2017-Nov-22 23:30N 26°06' W 080°10'1 2.9
2017-Nov-22 23:01N 26°07' W 080°08'2 4.3
2017-Nov-22 22:30N 26°06' W 080°07'816.2
2017-Nov-22 22:00N 26°13' W 080°04'1118.5
2017-Nov-22 21:24N 26°24' W 080°02'818.3
2017-Nov-22 20:57N 26°33' W 080°01'817.9
2017-Nov-22 20:30N 26°41' W 079°60'817.0
2017-Nov-22 20:00N 26°49' W 079°60'917.9
2017-Nov-22 19:30N 26°58' W 080°03'  
2017-Nov-19 18:47N 31°47' W 080°57'618.0
2017-Nov-19 18:27N 31°53' W 080°54'817.2
2017-Nov-19 18:00N 31°59' W 081°00'3 6.5
2017-Nov-19 17:29N 32°02' W 081°03'0 0.1
2017-Nov-19 17:00N 32°02' W 081°03'3 6.8
2017-Nov-19 16:30N 32°04' W 081°00'4 6.9
2017-Nov-19 15:55N 32°05' W 081°05'0 0.0
2017-Nov-19 15:19N 32°05' W 081°05'0 0.0
2017-Nov-17 18:49N 32°05' W 081°05'0 0.0
2017-Nov-17 18:19N 32°05' W 081°05'2 7.5
2017-Nov-17 18:00N 32°05' W 081°02'611.2
2017-Nov-17 17:30N 32°05' W 080°56'4 8.2
2017-Nov-17 17:00N 32°08' W 080°52'612.6
2017-Nov-17 16:30N 32°13' W 080°47'  
Track history (hours):
 
Tides and Currents Weather Stations Pressure Air Temp Water Temp Dewpoint Dewpoint Depression Visibility Wind Speed Wind Dir Waves Ship Positions

M/y Ohana

Last reported at 2017-Nov-22 23:47 UTC. Time now 2017-Nov-24 16:22 UTC.
Position N 26°06' W 080°10'.

Length 18 m.

Type: Pleasure craft. MMSI: 338166822.

Date/timePositionNaut miles runAvg speedWind from/ knotsBaromVisibWave heightAir tempDewpointWater temp
2017-Nov-22 23:47N 26°06' W 080°10'1 3.1
2017-Nov-22 23:30N 26°06' W 080°10'1 2.9
2017-Nov-22 23:01N 26°07' W 080°08'2 4.3
2017-Nov-22 22:30N 26°06' W 080°07'816.2
2017-Nov-22 22:00N 26°13' W 080°04'1118.5
2017-Nov-22 21:24N 26°24' W 080°02'818.3
2017-Nov-22 20:57N 26°33' W 080°01'817.9
2017-Nov-22 20:30N 26°41' W 079°60'817.0
2017-Nov-22 20:00N 26°49' W 079°60'917.9
2017-Nov-22 19:30N 26°58' W 080°03'  
2017-Nov-19 18:47N 31°47' W 080°57'618.0
2017-Nov-19 18:27N 31°53' W 080°54'817.2
2017-Nov-19 18:00N 31°59' W 081°00'3 6.5
2017-Nov-19 17:29N 32°02' W 081°03'0 0.1
2017-Nov-19 17:00N 32°02' W 081°03'3 6.8
2017-Nov-19 16:30N 32°04' W 081°00'4 6.9
2017-Nov-19 15:55N 32°05' W 081°05'0 0.0
2017-Nov-19 15:19N 32°05' W 081°05'0 0.0
2017-Nov-17 18:49N 32°05' W 081°05'0 0.0
2017-Nov-17 18:19N 32°05' W 081°05'2 7.5
2017-Nov-17 18:00N 32°05' W 081°02'611.2
2017-Nov-17 17:30N 32°05' W 080°56'4 8.2
2017-Nov-17 17:00N 32°08' W 080°52'612.6
2017-Nov-17 16:30N 32°13' W 080°47'  

Dump ship's entire track history